sensor_id;sensor_type;location;lat;lon;timestamp;pressure;altitude;pressure_sealevel;temperature;humidity
67697;BME280;54486;51.442;6.778;2023-04-26T00:01:58;101690.84;;;4.93;86.44
67697;BME280;54486;51.442;6.778;2023-04-26T00:04:26;101689.94;;;4.91;85.84
67697;BME280;54486;51.442;6.778;2023-04-26T00:06:55;101685.59;;;4.90;85.49
67697;BME280;54486;51.442;6.778;2023-04-26T00:09:22;101685.59;;;4.90;86.02
67697;BME280;54486;51.442;6.778;2023-04-26T00:11:50;101690.75;;;4.90;86.51
67697;BME280;54486;51.442;6.778;2023-04-26T00:14:17;101688.03;;;4.85;86.94
67697;BME280;54486;51.442;6.778;2023-04-26T00:16:44;101687.06;;;4.82;87.38
67697;BME280;54486;51.442;6.778;2023-04-26T00:19:11;101680.13;;;4.80;87.45
67697;BME280;54486;51.442;6.778;2023-04-26T00:21:38;101691.19;;;4.75;87.54
67697;BME280;54486;51.442;6.778;2023-04-26T00:24:06;101696.25;;;4.72;87.89
67697;BME280;54486;51.442;6.778;2023-04-26T00:26:33;101681.50;;;4.69;87.66
67697;BME280;54486;51.442;6.778;2023-04-26T00:29:01;101677.81;;;4.61;89.04
67697;BME280;54486;51.442;6.778;2023-04-26T00:31:31;101674.19;;;4.56;88.60
67697;BME280;54486;51.442;6.778;2023-04-26T00:33:58;101678.41;;;4.53;88.93
67697;BME280;54486;51.442;6.778;2023-04-26T00:36:25;101677.53;;;4.52;89.32
67697;BME280;54486;51.442;6.778;2023-04-26T00:38:52;101680.03;;;4.49;89.39
67697;BME280;54486;51.442;6.778;2023-04-26T00:41:19;101680.78;;;4.47;89.16
67697;BME280;54486;51.442;6.778;2023-04-26T00:43:47;101677.34;;;4.46;89.09
67697;BME280;54486;51.442;6.778;2023-04-26T00:46:14;101675.59;;;4.45;89.59
67697;BME280;54486;51.442;6.778;2023-04-26T00:48:42;101675.59;;;4.45;89.69
67697;BME280;54486;51.442;6.778;2023-04-26T00:51:10;101673.81;;;4.44;88.55
67697;BME280;54486;51.442;6.778;2023-04-26T00:53:39;101677.25;;;4.43;89.62
67697;BME280;54486;51.442;6.778;2023-04-26T00:56:08;101676.47;;;4.46;89.21
67697;BME280;54486;51.442;6.778;2023-04-26T00:58:36;101670.41;;;4.45;89.05
67697;BME280;54486;51.442;6.778;2023-04-26T01:01:03;101669.50;;;4.43;88.80
67697;BME280;54486;51.442;6.778;2023-04-26T01:03:30;101676.38;;;4.43;88.85
67697;BME280;54486;51.442;6.778;2023-04-26T01:05:59;101667.75;;;4.42;89.67
67697;BME280;54486;51.442;6.778;2023-04-26T01:08:26;101671.22;;;4.44;89.70
67697;BME280;54486;51.442;6.778;2023-04-26T01:10:54;101677.25;;;4.43;89.39
67697;BME280;54486;51.442;6.778;2023-04-26T01:13:23;101673.72;;;4.41;88.50
67697;BME280;54486;51.442;6.778;2023-04-26T01:15:53;101671.00;;;4.37;88.87
67697;BME280;54486;51.442;6.778;2023-04-26T01:18:21;101672.63;;;4.33;89.13
67697;BME280;54486;51.442;6.778;2023-04-26T01:20:49;101669.16;;;4.33;89.84
67697;BME280;54486;51.442;6.778;2023-04-26T01:23:19;101676.00;;;4.31;89.77
67697;BME280;54486;51.442;6.778;2023-04-26T01:25:47;101678.50;;;4.29;89.05
67697;BME280;54486;51.442;6.778;2023-04-26T01:28:14;101678.50;;;4.29;89.58
67697;BME280;54486;51.442;6.778;2023-04-26T01:30:42;101687.06;;;4.28;89.81
67697;BME280;54486;51.442;6.778;2023-04-26T01:33:09;101682.66;;;4.24;90.20
67697;BME280;54486;51.442;6.778;2023-04-26T01:35:36;101682.47;;;4.18;90.47
67697;BME280;54486;51.442;6.778;2023-04-26T01:38:03;101679.72;;;4.13;90.74
67697;BME280;54486;51.442;6.778;2023-04-26T01:40:30;101678.47;;;4.02;90.91
67697;BME280;54486;51.442;6.778;2023-04-26T01:42:56;101676.72;;;4.01;90.71
67697;BME280;54486;51.442;6.778;2023-04-26T01:45:24;101679.25;;;4.00;91.23
67697;BME280;54486;51.442;6.778;2023-04-26T01:47:52;101685.97;;;3.95;91.47
67697;BME280;54486;51.442;6.778;2023-04-26T01:50:19;101681.69;;;3.95;91.34
67697;BME280;54486;51.442;6.778;2023-04-26T01:52:46;101676.56;;;3.97;90.76
67697;BME280;54486;51.442;6.778;2023-04-26T01:55:13;101680.03;;;3.97;90.72
67697;BME280;54486;51.442;6.778;2023-04-26T01:57:40;101670.59;;;3.98;90.73
67697;BME280;54486;51.442;6.778;2023-04-26T02:00:08;101682.53;;;3.96;91.13
67697;BME280;54486;51.442;6.778;2023-04-26T02:02:35;101678.13;;;3.92;90.89
67697;BME280;54486;51.442;6.778;2023-04-26T02:05:02;101692.63;;;3.88;91.23
67697;BME280;54486;51.442;6.778;2023-04-26T02:07:30;101688.06;;;3.81;91.25
67697;BME280;54486;51.442;6.778;2023-04-26T02:09:57;101692.25;;;3.78;92.33
67697;BME280;54486;51.442;6.778;2023-04-26T02:12:24;101681.94;;;3.78;91.47
67697;BME280;54486;51.442;6.778;2023-04-26T02:14:50;101690.38;;;3.73;92.32
67697;BME280;54486;51.442;6.778;2023-04-26T02:17:18;101691.94;;;3.68;92.31
67697;BME280;54486;51.442;6.778;2023-04-26T02:19:47;101685.00;;;3.67;92.38
67697;BME280;54486;51.442;6.778;2023-04-26T02:22:14;101691.84;;;3.65;92.26
67697;BME280;54486;51.442;6.778;2023-04-26T02:24:42;101693.50;;;3.63;92.09
67697;BME280;54486;51.442;6.778;2023-04-26T02:27:09;101688.34;;;3.63;92.36
67697;BME280;54486;51.442;6.778;2023-04-26T02:29:36;101696.88;;;3.62;91.93
67697;BME280;54486;51.442;6.778;2023-04-26T02:32:11;101699.50;;;3.64;91.99
67697;BME280;54486;51.442;6.778;2023-04-26T02:34:39;101684.78;;;3.61;92.22
67697;BME280;54486;51.442;6.778;2023-04-26T02:37:06;101686.47;;;3.59;92.32
67697;BME280;54486;51.442;6.778;2023-04-26T02:39:34;101684.59;;;3.55;92.32
67697;BME280;54486;51.442;6.778;2023-04-26T02:42:01;101682.72;;;3.51;92.39
67697;BME280;54486;51.442;6.778;2023-04-26T02:44:30;101683.38;;;3.46;92.61
67697;BME280;54486;51.442;6.778;2023-04-26T02:46:57;101683.34;;;3.44;92.42
67697;BME280;54486;51.442;6.778;2023-04-26T02:49:24;101680.75;;;3.44;93.09
67697;BME280;54486;51.442;6.778;2023-04-26T02:51:51;101687.56;;;3.42;93.50
67697;BME280;54486;51.442;6.778;2023-04-26T02:54:19;101684.03;;;3.40;93.75
67697;BME280;54486;51.442;6.778;2023-04-26T02:56:46;101686.56;;;3.39;93.67
67697;BME280;54486;51.442;6.778;2023-04-26T02:59:13;101684.88;;;3.39;93.73
67697;BME280;54486;51.442;6.778;2023-04-26T03:01:41;101681.41;;;3.39;93.56
67697;BME280;54486;51.442;6.778;2023-04-26T03:04:08;101683.94;;;3.37;94.25
67697;BME280;54486;51.442;6.778;2023-04-26T03:06:36;101685.44;;;3.32;93.81
67697;BME280;54486;51.442;6.778;2023-04-26T03:09:03;101679.56;;;3.35;93.91
67697;BME280;54486;51.442;6.778;2023-04-26T03:11:31;101680.41;;;3.35;94.29
67697;BME280;54486;51.442;6.778;2023-04-26T03:13:58;101680.53;;;3.38;93.52
67697;BME280;54486;51.442;6.778;2023-04-26T03:16:26;101670.22;;;3.38;93.97
67697;BME280;54486;51.442;6.778;2023-04-26T03:18:53;101675.38;;;3.38;93.85
67697;BME280;54486;51.442;6.778;2023-04-26T03:21:21;101671.03;;;3.37;93.73
67697;BME280;54486;51.442;6.778;2023-04-26T03:23:48;101683.81;;;3.34;93.78
67697;BME280;54486;51.442;6.778;2023-04-26T03:26:15;101672.53;;;3.31;94.17
67697;BME280;54486;51.442;6.778;2023-04-26T03:28:42;101669.88;;;3.29;93.91
67697;BME280;54486;51.442;6.778;2023-04-26T03:31:09;101672.53;;;3.31;94.61
67697;BME280;54486;51.442;6.778;2023-04-26T03:33:36;101671.63;;;3.30;93.81
67697;BME280;54486;51.442;6.778;2023-04-26T03:36:03;101672.19;;;3.22;94.33
67697;BME280;54486;51.442;6.778;2023-04-26T03:38:30;101667.16;;;3.25;94.69
67697;BME280;54486;51.442;6.778;2023-04-26T03:40:57;101664.50;;;3.23;94.72
67697;BME280;54486;51.442;6.778;2023-04-26T03:43:24;101661.81;;;3.20;94.04
67697;BME280;54486;51.442;6.778;2023-04-26T03:45:52;101666.03;;;3.18;93.97
67697;BME280;54486;51.442;6.778;2023-04-26T03:48:20;101666.03;;;3.18;94.83
67697;BME280;54486;51.442;6.778;2023-04-26T03:50:47;101660.78;;;3.15;95.70
67697;BME280;54486;51.442;6.778;2023-04-26T03:53:14;101654.72;;;3.14;94.63
67697;BME280;54486;51.442;6.778;2023-04-26T03:55:41;101660.78;;;3.15;94.81
67697;BME280;54486;51.442;6.778;2023-04-26T03:58:08;101663.38;;;3.16;94.45
67697;BME280;54486;51.442;6.778;2023-04-26T04:00:39;101655.63;;;3.15;94.70
67697;BME280;54486;51.442;6.778;2023-04-26T04:03:08;101652.19;;;3.16;95.00
67697;BME280;54486;51.442;6.778;2023-04-26T04:05:35;101658.13;;;3.13;95.15
67697;BME280;54486;51.442;6.778;2023-04-26T04:08:03;101661.59;;;3.14;94.79
67697;BME280;54486;51.442;6.778;2023-04-26T04:10:30;101665.81;;;3.12;94.66
67697;BME280;54486;51.442;6.778;2023-04-26T04:12:57;101660.56;;;3.09;95.05
67697;BME280;54486;51.442;6.778;2023-04-26T04:15:25;101656.22;;;3.08;95.25
67697;BME280;54486;51.442;6.778;2023-04-26T04:17:52;101661.38;;;3.08;94.99
67697;BME280;54486;51.442;6.778;2023-04-26T04:20:20;101659.56;;;3.05;95.57
67697;BME280;54486;51.442;6.778;2023-04-26T04:22:46;101663.06;;;3.07;95.91
67697;BME280;54486;51.442;6.778;2023-04-26T04:25:13;101668.22;;;3.07;95.04
67697;BME280;54486;51.442;6.778;2023-04-26T04:27:41;101671.78;;;3.11;95.36
67697;BME280;54486;51.442;6.778;2023-04-26T04:30:10;101683.03;;;3.13;95.47
67697;BME280;54486;51.442;6.778;2023-04-26T04:32:37;101676.13;;;3.12;95.59
67697;BME280;54486;51.442;6.778;2023-04-26T04:35:11;101677.88;;;3.13;96.11
67697;BME280;54486;51.442;6.778;2023-04-26T04:37:38;101684.03;;;3.16;95.59
67697;BME280;54486;51.442;6.778;2023-04-26T04:40:06;101682.41;;;3.18;95.34
67697;BME280;54486;51.442;6.778;2023-04-26T04:42:37;101681.41;;;3.15;95.98
67697;BME280;54486;51.442;6.778;2023-04-26T04:45:05;101681.28;;;3.12;96.10
67697;BME280;54486;51.442;6.778;2023-04-26T04:47:32;101677.53;;;3.04;96.55
67697;BME280;54486;51.442;6.778;2023-04-26T04:50:00;101681.19;;;3.09;95.74
67697;BME280;54486;51.442;6.778;2023-04-26T04:52:28;101683.03;;;3.13;96.05
67697;BME280;54486;51.442;6.778;2023-04-26T04:54:55;101691.72;;;3.15;95.71
67697;BME280;54486;51.442;6.778;2023-04-26T04:57:23;101695.22;;;3.17;95.31
67697;BME280;54486;51.442;6.778;2023-04-26T04:59:51;101693.59;;;3.19;95.57
67697;BME280;54486;51.442;6.778;2023-04-26T05:02:18;101694.56;;;3.22;95.89
67697;BME280;54486;51.442;6.778;2023-04-26T05:04:46;101697.91;;;3.20;96.04
67697;BME280;54486;51.442;6.778;2023-04-26T05:07:12;101694.41;;;3.18;96.18
67697;BME280;54486;51.442;6.778;2023-04-26T05:09:41;101701.44;;;3.22;96.23
67697;BME280;54486;51.442;6.778;2023-04-26T05:12:09;101700.59;;;3.23;95.73
67697;BME280;54486;51.442;6.778;2023-04-26T05:14:36;101704.25;;;3.28;96.41
67697;BME280;54486;51.442;6.778;2023-04-26T05:17:03;101701.81;;;3.33;96.42
67697;BME280;54486;51.442;6.778;2023-04-26T05:19:30;101703.81;;;3.40;96.25
67697;BME280;54486;51.442;6.778;2023-04-26T05:21:58;101708.28;;;3.45;96.48
67697;BME280;54486;51.442;6.778;2023-04-26T05:24:24;101713.69;;;3.51;95.65
67697;BME280;54486;51.442;6.778;2023-04-26T05:26:51;101708.72;;;3.57;96.71
67697;BME280;54486;51.442;6.778;2023-04-26T05:29:19;101715.88;;;3.64;96.52
67697;BME280;54486;51.442;6.778;2023-04-26T05:31:45;101712.69;;;3.71;96.18
67697;BME280;54486;51.442;6.778;2023-04-26T05:34:12;101706.09;;;3.80;95.43
67697;BME280;54486;51.442;6.778;2023-04-26T05:36:39;101708.94;;;3.87;96.09
67697;BME280;54486;51.442;6.778;2023-04-26T05:39:28;101722.13;;;3.95;95.20
67697;BME280;54486;51.442;6.778;2023-04-26T05:41:54;101713.75;;;4.02;94.83
67697;BME280;54486;51.442;6.778;2023-04-26T05:44:22;101713.13;;;4.09;94.81
67697;BME280;54486;51.442;6.778;2023-04-26T05:46:49;101717.66;;;4.16;94.08
67697;BME280;54486;51.442;6.778;2023-04-26T05:49:16;101723.03;;;4.22;94.15
67697;BME280;54486;51.442;6.778;2023-04-26T05:51:43;101721.50;;;4.27;93.17
67697;BME280;54486;51.442;6.778;2023-04-26T05:54:11;101716.53;;;4.33;92.77
67697;BME280;54486;51.442;6.778;2023-04-26T05:56:38;101718.44;;;4.39;92.68
67697;BME280;54486;51.442;6.778;2023-04-26T05:59:05;101727.28;;;4.45;92.24
67697;BME280;54486;51.442;6.778;2023-04-26T06:01:32;101725.78;;;4.53;92.88
67697;BME280;54486;51.442;6.778;2023-04-26T06:04:00;101729.41;;;4.58;92.60
67697;BME280;54486;51.442;6.778;2023-04-26T06:06:27;101729.72;;;4.67;92.07
67697;BME280;54486;51.442;6.778;2023-04-26T06:08:55;101730.00;;;4.76;92.09
67697;BME280;54486;51.442;6.778;2023-04-26T06:11:22;101727.75;;;4.87;91.70
67697;BME280;54486;51.442;6.778;2023-04-26T06:13:50;101736.56;;;4.94;91.13
67697;BME280;54486;51.442;6.778;2023-04-26T06:16:17;101736.03;;;5.04;89.59
67697;BME280;54486;51.442;6.778;2023-04-26T06:18:44;101732.69;;;5.08;88.45
67697;BME280;54486;51.442;6.778;2023-04-26T06:21:11;101739.88;;;5.18;89.13
67697;BME280;54486;51.442;6.778;2023-04-26T06:23:38;101745.34;;;5.27;88.20
67697;BME280;54486;51.442;6.778;2023-04-26T06:26:05;101744.69;;;5.34;87.30
67697;BME280;54486;51.442;6.778;2023-04-26T06:28:32;101748.38;;;5.42;86.74
67697;BME280;54486;51.442;6.778;2023-04-26T06:30:58;101749.38;;;5.47;85.45
67697;BME280;54486;51.442;6.778;2023-04-26T06:33:25;101747.88;;;5.55;85.32
67697;BME280;54486;51.442;6.778;2023-04-26T06:35:53;101750.75;;;5.64;85.20
67697;BME280;54486;51.442;6.778;2023-04-26T06:38:20;101752.72;;;5.73;84.96
67697;BME280;54486;51.442;6.778;2023-04-26T06:40:47;101760.78;;;5.83;85.36
67697;BME280;54486;51.442;6.778;2023-04-26T06:43:14;101758.16;;;5.82;82.97
67697;BME280;54486;51.442;6.778;2023-04-26T06:45:41;101751.44;;;5.89;84.39
67697;BME280;54486;51.442;6.778;2023-04-26T06:48:09;101751.66;;;5.96;84.46
67697;BME280;54486;51.442;6.778;2023-04-26T06:50:39;101748.28;;;5.99;83.02
67697;BME280;54486;51.442;6.778;2023-04-26T06:53:06;101744.97;;;6.04;83.03
67697;BME280;54486;51.442;6.778;2023-04-26T06:55:33;101743.28;;;6.06;82.71
67697;BME280;54486;51.442;6.778;2023-04-26T06:58:01;101737.25;;;6.06;81.14
67697;BME280;54486;51.442;6.778;2023-04-26T07:00:27;101746.81;;;6.08;82.18
67697;BME280;54486;51.442;6.778;2023-04-26T07:02:55;101740.81;;;6.11;82.10
67697;BME280;54486;51.442;6.778;2023-04-26T07:05:23;101744.41;;;6.16;81.39
67697;BME280;54486;51.442;6.778;2023-04-26T07:07:50;101748.09;;;6.24;82.02
67697;BME280;54486;51.442;6.778;2023-04-26T07:10:18;101743.06;;;6.30;79.49
67697;BME280;54486;51.442;6.778;2023-04-26T07:12:47;101742.38;;;6.37;78.77
67697;BME280;54486;51.442;6.778;2023-04-26T07:15:14;101742.47;;;6.42;79.78
67697;BME280;54486;51.442;6.778;2023-04-26T07:17:41;101740.84;;;6.45;77.56
67697;BME280;54486;51.442;6.778;2023-04-26T07:20:09;101742.13;;;6.62;78.54
67697;BME280;54486;51.442;6.778;2023-04-26T07:30:42;101736.31;;;7.10;75.47
67697;BME280;54486;51.442;6.778;2023-04-26T07:38:59;101742.69;;;7.24;72.36
67697;BME280;54486;51.442;6.778;2023-04-26T07:41:29;101745.41;;;7.30;69.97
67697;BME280;54486;51.442;6.778;2023-04-26T07:43:55;101738.66;;;7.38;71.80
67697;BME280;54486;51.442;6.778;2023-04-26T07:46:22;101745.59;;;7.39;70.34
67697;BME280;54486;51.442;6.778;2023-04-26T07:48:52;101738.72;;;7.41;69.21
67697;BME280;54486;51.442;6.778;2023-04-26T07:51:19;101740.66;;;7.51;69.31
67697;BME280;54486;51.442;6.778;2023-04-26T07:53:47;101744.44;;;7.65;70.53
67697;BME280;54486;51.442;6.778;2023-04-26T07:56:22;101730.78;;;7.77;67.54
67697;BME280;54486;51.442;6.778;2023-04-26T07:58:51;101734.59;;;7.95;67.54
67697;BME280;54486;51.442;6.778;2023-04-26T08:01:18;101738.34;;;8.10;68.83
67697;BME280;54486;51.442;6.778;2023-04-26T08:03:45;101729.03;;;8.22;66.90
67697;BME280;54486;51.442;6.778;2023-04-26T08:06:15;101737.16;;;8.39;66.74
67697;BME280;54486;51.442;6.778;2023-04-26T08:08:43;101732.16;;;8.51;66.60
67697;BME280;54486;51.442;6.778;2023-04-26T08:11:15;101730.34;;;8.47;63.99
67697;BME280;54486;51.442;6.778;2023-04-26T08:13:42;101732.13;;;8.48;61.83
67697;BME280;54486;51.442;6.778;2023-04-26T08:16:11;101727.81;;;8.50;62.77
67697;BME280;54486;51.442;6.778;2023-04-26T08:18:38;101731.38;;;8.55;61.79
67697;BME280;54486;51.442;6.778;2023-04-26T08:21:05;101730.47;;;8.53;62.86
67697;BME280;54486;51.442;6.778;2023-04-26T08:23:34;101729.53;;;8.48;64.29
67697;BME280;54486;51.442;6.778;2023-04-26T08:26:04;101729.38;;;8.40;63.07
67697;BME280;54486;51.442;6.778;2023-04-26T08:28:33;101732.13;;;8.48;62.36
67697;BME280;54486;51.442;6.778;2023-04-26T08:31:03;101733.75;;;8.43;60.25
67697;BME280;54486;51.442;6.778;2023-04-26T08:33:31;101729.56;;;8.51;62.27
67697;BME280;54486;51.442;6.778;2023-04-26T08:35:58;101733.97;;;8.55;59.07
67697;BME280;54486;51.442;6.778;2023-04-26T08:38:27;101734.16;;;8.67;61.05
67697;BME280;54486;51.442;6.778;2023-04-26T08:40:58;101735.94;;;8.71;56.36
67697;BME280;54486;51.442;6.778;2023-04-26T08:43:27;101737.84;;;8.81;55.40
67697;BME280;54486;51.442;6.778;2023-04-26T08:45:57;101730.28;;;8.98;56.08
67697;BME280;54486;51.442;6.778;2023-04-26T08:48:27;101742.53;;;9.07;55.46
67697;BME280;54486;51.442;6.778;2023-04-26T08:51:00;101729.59;;;9.13;57.03
67697;BME280;54486;51.442;6.778;2023-04-26T08:53:28;101727.88;;;9.12;55.96
67697;BME280;54486;51.442;6.778;2023-04-26T08:55:57;101734.72;;;9.07;54.68
67697;BME280;54486;51.442;6.778;2023-04-26T08:58:25;101740.78;;;9.02;53.76
67697;BME280;54486;51.442;6.778;2023-04-26T09:00:52;101738.22;;;9.06;56.95
67697;BME280;54486;51.442;6.778;2023-04-26T09:03:22;101737.25;;;8.99;55.88
67697;BME280;54486;51.442;6.778;2023-04-26T09:05:49;101733.81;;;9.01;57.93
67697;BME280;54486;51.442;6.778;2023-04-26T09:08:16;101741.69;;;9.08;55.87
67697;BME280;54486;51.442;6.778;2023-04-26T09:10:44;101738.25;;;9.09;55.84
67697;BME280;54486;51.442;6.778;2023-04-26T09:13:11;101744.47;;;9.18;56.66
67697;BME280;54486;51.442;6.778;2023-04-26T09:15:38;101740.22;;;9.25;58.20
67697;BME280;54486;51.442;6.778;2023-04-26T09:20:44;101744.03;;;9.54;55.70
67697;BME280;54486;51.442;6.778;2023-04-26T09:23:11;101747.56;;;9.56;57.36
67697;BME280;54486;51.442;6.778;2023-04-26T09:25:38;101742.38;;;9.59;56.56
67697;BME280;54486;51.442;6.778;2023-04-26T09:28:20;101739.56;;;9.41;54.99
67697;BME280;54486;51.442;6.778;2023-04-26T09:30:49;101743.69;;;9.25;55.31
67697;BME280;54486;51.442;6.778;2023-04-26T09:33:16;101738.53;;;9.30;57.36
67697;BME280;54486;51.442;6.778;2023-04-26T09:35:43;101733.47;;;9.42;56.88
67697;BME280;54486;51.442;6.778;2023-04-26T09:38:12;101735.44;;;9.61;55.86
67697;BME280;54486;51.442;6.778;2023-04-26T09:40:50;101729.50;;;9.71;55.79
67697;BME280;54486;51.442;6.778;2023-04-26T09:43:20;101726.94;;;9.77;53.11
67697;BME280;54486;51.442;6.778;2023-04-26T09:45:49;101723.53;;;9.81;56.18
67697;BME280;54486;51.442;6.778;2023-04-26T09:48:28;101727.97;;;9.90;54.79
67697;BME280;54486;51.442;6.778;2023-04-26T09:50:58;101718.41;;;9.90;54.56
67697;BME280;54486;51.442;6.778;2023-04-26T09:56:13;101711.66;;;10.07;52.82
67697;BME280;54486;51.442;6.778;2023-04-26T10:01:14;101703.31;;;10.48;53.59
67697;BME280;54486;51.442;6.778;2023-04-26T10:03:42;101704.31;;;10.63;54.23
67697;BME280;54486;51.442;6.778;2023-04-26T10:06:11;101705.22;;;10.67;52.34
67697;BME280;54486;51.442;6.778;2023-04-26T10:08:38;101706.84;;;10.53;50.66
67697;BME280;54486;51.442;6.778;2023-04-26T10:11:06;101705.03;;;10.40;50.48
67697;BME280;54486;51.442;6.778;2023-04-26T10:13:34;101713.34;;;10.05;50.74
67697;BME280;54486;51.442;6.778;2023-04-26T10:16:01;101711.25;;;9.71;50.92
67697;BME280;54486;51.442;6.778;2023-04-26T10:18:30;101721.53;;;9.59;51.24
67697;BME280;54486;51.442;6.778;2023-04-26T10:21:01;101718.19;;;9.69;52.00
67697;BME280;54486;51.442;6.778;2023-04-26T10:23:34;101713.09;;;9.81;52.05
67697;BME280;54486;51.442;6.778;2023-04-26T10:26:01;101716.78;;;9.98;52.21
67697;BME280;54486;51.442;6.778;2023-04-26T10:31:11;101704.81;;;10.19;52.23
67697;BME280;54486;51.442;6.778;2023-04-26T10:33:38;101706.63;;;10.24;49.21
67697;BME280;54486;51.442;6.778;2023-04-26T10:36:12;101699.66;;;10.25;50.01
67697;BME280;54486;51.442;6.778;2023-04-26T10:39:16;101700.66;;;10.42;49.46
67697;BME280;54486;51.442;6.778;2023-04-26T10:41:31;101686.91;;;10.61;52.12
67697;BME280;54486;51.442;6.778;2023-04-26T10:44:36;101696.59;;;10.77;49.86
67697;BME280;54486;51.442;6.778;2023-04-26T10:47:05;101700.94;;;10.75;50.17
67697;BME280;54486;51.442;6.778;2023-04-26T10:49:43;101696.56;;;10.74;50.25
67697;BME280;54486;51.442;6.778;2023-04-26T10:52:16;101699.84;;;10.46;49.28
67697;BME280;54486;51.442;6.778;2023-04-26T10:54:49;101694.41;;;10.22;50.09
67697;BME280;54486;51.442;6.778;2023-04-26T10:57:17;101694.34;;;10.16;49.38
67697;BME280;54486;51.442;6.778;2023-04-26T11:08:07;101696.88;;;10.09;50.18
67697;BME280;54486;51.442;6.778;2023-04-26T11:10:37;101694.19;;;10.00;50.69
67697;BME280;54486;51.442;6.778;2023-04-26T11:13:04;101697.63;;;9.96;50.88
67697;BME280;54486;51.442;6.778;2023-04-26T11:15:32;101701.09;;;9.95;52.13
67697;BME280;54486;51.442;6.778;2023-04-26T11:18:03;101701.25;;;10.10;52.44
67697;BME280;54486;51.442;6.778;2023-04-26T11:20:31;101701.94;;;9.96;51.42
67697;BME280;54486;51.442;6.778;2023-04-26T11:22:59;101694.16;;;9.97;52.15
67697;BME280;54486;51.442;6.778;2023-04-26T11:25:27;101693.38;;;10.04;53.53
67697;BME280;54486;51.442;6.778;2023-04-26T11:28:02;101699.50;;;10.11;52.28
67697;BME280;54486;51.442;6.778;2023-04-26T11:30:32;101688.94;;;9.97;51.50
67697;BME280;54486;51.442;6.778;2023-04-26T11:33:00;101684.63;;;10.01;52.48
67697;BME280;54486;51.442;6.778;2023-04-26T11:35:28;101687.44;;;10.18;54.16
67697;BME280;54486;51.442;6.778;2023-04-26T11:37:59;101688.31;;;10.20;49.11
67697;BME280;54486;51.442;6.778;2023-04-26T11:40:30;101687.41;;;10.15;50.28
67697;BME280;54486;51.442;6.778;2023-04-26T11:43:07;101683.91;;;10.16;49.59
67697;BME280;54486;51.442;6.778;2023-04-26T11:45:37;101678.63;;;10.09;49.18
67697;BME280;54486;51.442;6.778;2023-04-26T11:48:09;101673.44;;;10.13;51.59
67697;BME280;54486;51.442;6.778;2023-04-26T11:50:39;101677.03;;;10.21;50.04
67697;BME280;54486;51.442;6.778;2023-04-26T11:53:08;101675.31;;;10.26;50.99
67697;BME280;54486;51.442;6.778;2023-04-26T11:55:35;101677.06;;;10.24;49.64
67697;BME280;54486;51.442;6.778;2023-04-26T11:58:12;101674.53;;;10.36;51.13
67697;BME280;54486;51.442;6.778;2023-04-26T12:00:57;101671.28;;;10.66;50.99
67697;BME280;54486;51.442;6.778;2023-04-26T12:03:31;101679.16;;;10.76;48.80
67697;BME280;54486;51.442;6.778;2023-04-26T12:06:02;101690.59;;;10.96;49.73
67697;BME280;54486;51.442;6.778;2023-04-26T12:08:31;101680.09;;;10.84;47.83
67697;BME280;54486;51.442;6.778;2023-04-26T12:11:01;101679.19;;;10.82;47.56
67697;BME280;54486;51.442;6.778;2023-04-26T12:13:28;101678.44;;;11.04;49.74
67697;BME280;54486;51.442;6.778;2023-04-26T12:15:56;101674.13;;;11.03;47.93
67697;BME280;54486;51.442;6.778;2023-04-26T12:18:30;101668.03;;;11.09;46.59
67697;BME280;54486;51.442;6.778;2023-04-26T12:20:59;101677.66;;;11.21;48.24
67697;BME280;54486;51.442;6.778;2023-04-26T12:23:35;101669.88;;;11.28;46.83
67697;BME280;54486;51.442;6.778;2023-04-26T12:26:04;101672.47;;;11.30;47.71
67697;BME280;54486;51.442;6.778;2023-04-26T12:28:32;101671.72;;;11.56;48.67
67697;BME280;54486;51.442;6.778;2023-04-26T12:30:59;101665.72;;;11.83;47.20
67697;BME280;54486;51.442;6.778;2023-04-26T12:33:29;101662.25;;;12.17;46.47
67697;BME280;54486;51.442;6.778;2023-04-26T12:36:04;101652.66;;;12.38;44.25
67697;BME280;54486;51.442;6.778;2023-04-26T12:38:31;101665.75;;;12.35;41.70
67697;BME280;54486;51.442;6.778;2023-04-26T12:40:59;101658.75;;;12.31;41.85
67697;BME280;54486;51.442;6.778;2023-04-26T12:43:27;101656.97;;;11.78;41.46
67697;BME280;54486;51.442;6.778;2023-04-26T12:45:54;101656.09;;;11.79;44.01
67697;BME280;54486;51.442;6.778;2023-04-26T12:48:21;101660.47;;;11.91;45.41
67697;BME280;54486;51.442;6.778;2023-04-26T12:50:48;101658.75;;;12.14;45.66
67697;BME280;54486;51.442;6.778;2023-04-26T12:53:17;101658.75;;;12.09;41.75
67697;BME280;54486;51.442;6.778;2023-04-26T12:55:44;101664.81;;;11.77;41.45
67697;BME280;54486;51.442;6.778;2023-04-26T12:58:12;101659.59;;;11.77;41.78
67697;BME280;54486;51.442;6.778;2023-04-26T13:00:39;101661.34;;;11.73;42.30
67697;BME280;54486;51.442;6.778;2023-04-26T13:03:09;101660.47;;;11.74;42.87
67697;BME280;54486;51.442;6.778;2023-04-26T13:05:41;101661.28;;;11.67;43.18
67697;BME280;54486;51.442;6.778;2023-04-26T13:08:07;101676.06;;;11.59;43.69
67697;BME280;54486;51.442;6.778;2023-04-26T13:10:34;101678.59;;;11.32;41.81
67697;BME280;54486;51.442;6.778;2023-04-26T13:13:01;101675.97;;;11.26;44.29
67697;BME280;54486;51.442;6.778;2023-04-26T13:15:29;101679.44;;;11.25;46.17
67697;BME280;54486;51.442;6.778;2023-04-26T13:17:57;101677.66;;;11.18;45.41
67697;BME280;54486;51.442;6.778;2023-04-26T13:20:24;101677.59;;;11.05;45.62
67697;BME280;54486;51.442;6.778;2023-04-26T13:22:53;101674.13;;;11.08;46.34
67697;BME280;54486;51.442;6.778;2023-04-26T13:25:21;101665.34;;;10.92;46.69
67697;BME280;54486;51.442;6.778;2023-04-26T13:27:49;101672.41;;;11.11;47.38
67697;BME280;54486;51.442;6.778;2023-04-26T13:30:20;101663.75;;;11.25;47.15
67697;BME280;54486;51.442;6.778;2023-04-26T13:32:47;101667.31;;;11.39;46.95
67697;BME280;54486;51.442;6.778;2023-04-26T13:35:14;101669.94;;;11.52;47.78
67697;BME280;54486;51.442;6.778;2023-04-26T13:37:42;101662.16;;;11.66;46.98